sensor_id;sensor_type;location;lat;lon;timestamp;pressure;altitude;pressure_sealevel;temperature;humidity
42887;BME280;29032;56.028;92.904;2022-09-16T00:03:16;100530.75;;;6.91;52.62
42887;BME280;29032;56.028;92.904;2022-09-16T00:08:19;100536.09;;;6.95;52.92
42887;BME280;29032;56.028;92.904;2022-09-16T00:13:22;100529.44;;;7.07;52.59
42887;BME280;29032;56.028;92.904;2022-09-16T00:18:24;100531.25;;;7.10;52.81
42887;BME280;29032;56.028;92.904;2022-09-16T00:23:27;100539.63;;;7.16;52.78
42887;BME280;29032;56.028;92.904;2022-09-16T00:28:30;100544.19;;;7.19;52.45
42887;BME280;29032;56.028;92.904;2022-09-16T00:33:32;100539.84;;;7.12;52.70
42887;BME280;29032;56.028;92.904;2022-09-16T00:38:35;100541.34;;;7.13;52.49
42887;BME280;29032;56.028;92.904;2022-09-16T00:43:50;100545.56;;;7.24;52.72
42887;BME280;29032;56.028;92.904;2022-09-16T00:48:53;100549.97;;;7.15;53.16
42887;BME280;29032;56.028;92.904;2022-09-16T00:53:59;100548.66;;;7.31;52.38
42887;BME280;29032;56.028;92.904;2022-09-16T00:59:06;100525.84;;;7.22;52.56
42887;BME280;29032;56.028;92.904;2022-09-16T01:04:12;100547.25;;;7.62;50.66
42887;BME280;29032;56.028;92.904;2022-09-16T01:09:17;100541.78;;;7.47;51.69
42887;BME280;29032;56.028;92.904;2022-09-16T01:14:22;100550.19;;;7.53;51.78
42887;BME280;29032;56.028;92.904;2022-09-16T01:19:53;100561.50;;;7.75;51.03
42887;BME280;29032;56.028;92.904;2022-09-16T01:25:10;100556.66;;;7.70;51.23
42887;BME280;29032;56.028;92.904;2022-09-16T01:30:39;100566.28;;;7.75;51.40
42887;BME280;29032;56.028;92.904;2022-09-16T01:35:54;100566.28;;;7.75;51.31
42887;BME280;29032;56.028;92.904;2022-09-16T01:41:05;100566.84;;;7.79;51.21
42887;BME280;29032;56.028;92.904;2022-09-16T01:46:17;100564.75;;;7.94;51.41
42887;BME280;29032;56.028;92.904;2022-09-16T01:51:24;100567.06;;;8.01;51.99
42887;BME280;29032;56.028;92.904;2022-09-16T01:56:32;100567.72;;;8.16;50.98
42887;BME280;29032;56.028;92.904;2022-09-16T02:01:46;100560.59;;;8.36;51.13
42887;BME280;29032;56.028;92.904;2022-09-16T02:06:51;100567.91;;;8.39;50.63
42887;BME280;29032;56.028;92.904;2022-09-16T02:11:56;100570.25;;;8.46;52.03
42887;BME280;29032;56.028;92.904;2022-09-16T02:17:04;100568.38;;;8.63;50.47
42887;BME280;29032;56.028;92.904;2022-09-16T02:22:11;100568.94;;;8.73;50.58
42887;BME280;29032;56.028;92.904;2022-09-16T02:27:15;100572.06;;;8.86;50.15
42887;BME280;29032;56.028;92.904;2022-09-16T02:32:22;100568.88;;;8.99;49.57
42887;BME280;29032;56.028;92.904;2022-09-16T02:37:30;100570.41;;;9.00;50.25
42887;BME280;29032;56.028;92.904;2022-09-16T02:42:34;100566.34;;;9.01;50.08
42887;BME280;29032;56.028;92.904;2022-09-16T02:47:45;100555.81;;;9.16;50.22
42887;BME280;29032;56.028;92.904;2022-09-16T02:52:53;100551.28;;;9.13;49.54
42887;BME280;29032;56.028;92.904;2022-09-16T02:57:58;100556.06;;;9.13;49.51
42887;BME280;29032;56.028;92.904;2022-09-16T03:03:01;100558.84;;;9.18;49.92
42887;BME280;29032;56.028;92.904;2022-09-16T03:08:03;100550.09;;;9.31;49.54
42887;BME280;29032;56.028;92.904;2022-09-16T03:13:11;100554.72;;;9.51;49.49
42887;BME280;29032;56.028;92.904;2022-09-16T03:18:32;100550.97;;;9.65;50.17
42887;BME280;29032;56.028;92.904;2022-09-16T03:23:43;100553.53;;;9.69;49.27
42887;BME280;29032;56.028;92.904;2022-09-16T03:28:58;100550.50;;;9.83;49.59
42887;BME280;29032;56.028;92.904;2022-09-16T03:34:07;100545.47;;;9.99;49.61
42887;BME280;29032;56.028;92.904;2022-09-16T03:39:11;100535.09;;;9.99;49.32
42887;BME280;29032;56.028;92.904;2022-09-16T03:44:14;100534.59;;;9.95;49.98
42887;BME280;29032;56.028;92.904;2022-09-16T03:49:17;100538.16;;;10.07;49.86
42887;BME280;29032;56.028;92.904;2022-09-16T03:54:19;100536.13;;;10.07;49.22
42887;BME280;29032;56.028;92.904;2022-09-16T03:59:21;100521.97;;;10.16;50.05
42887;BME280;29032;56.028;92.904;2022-09-16T04:04:25;100532.88;;;10.31;49.37
42887;BME280;29032;56.028;92.904;2022-09-16T04:09:27;100519.97;;;10.39;49.37
42887;BME280;29032;56.028;92.904;2022-09-16T04:14:29;100511.13;;;10.46;49.24
42887;BME280;29032;56.028;92.904;2022-09-16T04:19:33;100513.34;;;10.59;48.87
42887;BME280;29032;56.028;92.904;2022-09-16T04:24:35;100509.53;;;10.73;48.40
42887;BME280;29032;56.028;92.904;2022-09-16T04:29:37;100485.22;;;10.74;48.23
42887;BME280;29032;56.028;92.904;2022-09-16T04:34:40;100503.88;;;11.01;47.37
42887;BME280;29032;56.028;92.904;2022-09-16T04:39:42;100501.34;;;11.04;45.78
42887;BME280;29032;56.028;92.904;2022-09-16T04:44:44;100498.78;;;11.17;46.09
42887;BME280;29032;56.028;92.904;2022-09-16T04:49:48;100490.59;;;11.30;44.23
42887;BME280;29032;56.028;92.904;2022-09-16T04:54:50;100481.97;;;11.34;43.04
42887;BME280;29032;56.028;92.904;2022-09-16T04:59:52;100477.59;;;11.44;43.94
42887;BME280;29032;56.028;92.904;2022-09-16T05:04:56;100471.69;;;11.59;45.38
42887;BME280;29032;56.028;92.904;2022-09-16T05:09:58;100470.47;;;11.54;47.16
42887;BME280;29032;56.028;92.904;2022-09-16T05:15:00;100459.53;;;11.62;46.62
42887;BME280;29032;56.028;92.904;2022-09-16T05:20:04;100466.22;;;11.83;46.63
42887;BME280;29032;56.028;92.904;2022-09-16T05:25:07;100460.94;;;12.09;45.77
42887;BME280;29032;56.028;92.904;2022-09-16T05:30:10;100454.03;;;12.41;44.37
42887;BME280;29032;56.028;92.904;2022-09-16T05:35:14;100460.06;;;12.75;44.49
42887;BME280;29032;56.028;92.904;2022-09-16T05:40:16;100445.44;;;13.06;43.30
42887;BME280;29032;56.028;92.904;2022-09-16T05:45:18;100440.47;;;13.37;40.81
42887;BME280;29032;56.028;92.904;2022-09-16T05:50:22;100429.56;;;13.71;39.68
42887;BME280;29032;56.028;92.904;2022-09-16T05:55:24;100433.41;;;14.00;37.76
42887;BME280;29032;56.028;92.904;2022-09-16T06:00:26;100427.84;;;14.26;36.95
42887;BME280;29032;56.028;92.904;2022-09-16T06:05:29;100436.06;;;14.51;37.00
42887;BME280;29032;56.028;92.904;2022-09-16T06:10:36;100420.34;;;14.35;38.30
42887;BME280;29032;56.028;92.904;2022-09-16T06:15:38;100417.28;;;14.19;37.30
42887;BME280;29032;56.028;92.904;2022-09-16T06:20:42;100424.47;;;14.01;38.72
42887;BME280;29032;56.028;92.904;2022-09-16T06:25:44;100405.13;;;13.71;36.64
42887;BME280;29032;56.028;92.904;2022-09-16T06:30:47;100412.03;;;13.52;37.01
42887;BME280;29032;56.028;92.904;2022-09-16T06:35:50;100402.22;;;13.45;37.29
42887;BME280;29032;56.028;92.904;2022-09-16T06:40:52;100402.28;;;13.20;37.33
42887;BME280;29032;56.028;92.904;2022-09-16T06:45:59;100407.75;;;13.13;39.25
42887;BME280;29032;56.028;92.904;2022-09-16T06:51:04;100402.00;;;13.05;37.79
42887;BME280;29032;56.028;92.904;2022-09-16T06:56:08;100395.72;;;12.99;38.99
42887;BME280;29032;56.028;92.904;2022-09-16T07:01:12;100397.63;;;13.10;39.07
42887;BME280;29032;56.028;92.904;2022-09-16T07:06:17;100386.13;;;13.13;38.03
42887;BME280;29032;56.028;92.904;2022-09-16T07:11:21;100389.53;;;13.06;36.09
42887;BME280;29032;56.028;92.904;2022-09-16T07:16:25;100386.72;;;13.06;36.61
42887;BME280;29032;56.028;92.904;2022-09-16T07:21:29;100375.81;;;13.08;36.50
42887;BME280;29032;56.028;92.904;2022-09-16T07:26:33;100375.19;;;13.15;38.58
42887;BME280;29032;56.028;92.904;2022-09-16T07:31:38;100371.16;;;13.30;38.59
42887;BME280;29032;56.028;92.904;2022-09-16T07:36:43;100370.16;;;13.27;35.60
42887;BME280;29032;56.028;92.904;2022-09-16T07:41:47;100357.34;;;13.18;38.69
42887;BME280;29032;56.028;92.904;2022-09-16T07:46:50;100360.41;;;13.34;36.18
42887;BME280;29032;56.028;92.904;2022-09-16T07:51:53;100360.72;;;13.30;35.83
42887;BME280;29032;56.028;92.904;2022-09-16T07:56:56;100350.97;;;13.37;38.18
42887;BME280;29032;56.028;92.904;2022-09-16T08:02:00;100358.56;;;13.55;36.98
42887;BME280;29032;56.028;92.904;2022-09-16T08:07:05;100352.88;;;13.61;35.94
42887;BME280;29032;56.028;92.904;2022-09-16T08:12:08;100347.34;;;13.55;38.64
42887;BME280;29032;56.028;92.904;2022-09-16T08:17:19;100355.72;;;13.74;38.29
42887;BME280;29032;56.028;92.904;2022-09-16T08:22:23;100348.31;;;13.77;35.76
42887;BME280;29032;56.028;92.904;2022-09-16T08:27:25;100343.34;;;13.69;36.91
42887;BME280;29032;56.028;92.904;2022-09-16T08:32:28;100329.66;;;13.66;35.76
42887;BME280;29032;56.028;92.904;2022-09-16T08:37:33;100336.69;;;13.72;36.19
42887;BME280;29032;56.028;92.904;2022-09-16T08:42:50;100333.03;;;13.78;38.21
42887;BME280;29032;56.028;92.904;2022-09-16T08:48:09;100326.91;;;13.92;38.14
42887;BME280;29032;56.028;92.904;2022-09-16T08:53:23;100326.28;;;13.99;37.94
42887;BME280;29032;56.028;92.904;2022-09-16T08:58:34;100328.31;;;14.12;37.15
42887;BME280;29032;56.028;92.904;2022-09-16T09:03:41;100326.16;;;14.18;35.93
42887;BME280;29032;56.028;92.904;2022-09-16T09:08:52;100331.75;;;14.18;35.93
42887;BME280;29032;56.028;92.904;2022-09-16T09:14:11;100314.97;;;14.18;35.70
42887;BME280;29032;56.028;92.904;2022-09-16T09:19:31;100314.66;;;14.35;35.78
42887;BME280;29032;56.028;92.904;2022-09-16T09:24:42;100315.56;;;14.64;35.21
42887;BME280;29032;56.028;92.904;2022-09-16T09:30:00;100314.75;;;14.43;33.81
42887;BME280;29032;56.028;92.904;2022-09-16T09:35:18;100315.41;;;14.36;34.83
42887;BME280;29032;56.028;92.904;2022-09-16T09:40:31;100307.66;;;14.28;34.92
42887;BME280;29032;56.028;92.904;2022-09-16T09:45:38;100308.50;;;14.10;34.18
42887;BME280;29032;56.028;92.904;2022-09-16T09:50:44;100313.44;;;13.91;34.55
42887;BME280;29032;56.028;92.904;2022-09-16T09:55:51;100316.78;;;13.89;36.95
42887;BME280;29032;56.028;92.904;2022-09-16T10:00:55;100308.81;;;13.80;37.47
42887;BME280;29032;56.028;92.904;2022-09-16T10:05:58;100310.31;;;13.81;38.64
42887;BME280;29032;56.028;92.904;2022-09-16T10:11:14;100305.81;;;13.78;35.28
42887;BME280;29032;56.028;92.904;2022-09-16T10:16:18;100314.22;;;13.78;34.39
42887;BME280;29032;56.028;92.904;2022-09-16T10:21:20;100296.75;;;13.72;35.78
42887;BME280;29032;56.028;92.904;2022-09-16T10:26:26;100309.44;;;13.73;34.43
42887;BME280;29032;56.028;92.904;2022-09-16T10:31:34;100297.63;;;13.80;36.55
42887;BME280;29032;56.028;92.904;2022-09-16T10:36:37;100297.50;;;13.72;38.95
42887;BME280;29032;56.028;92.904;2022-09-16T10:41:42;100289.78;;;13.79;36.93
42887;BME280;29032;56.028;92.904;2022-09-16T10:46:53;100287.59;;;13.71;35.60
42887;BME280;29032;56.028;92.904;2022-09-16T10:52:07;100296.03;;;13.53;34.85
42887;BME280;29032;56.028;92.904;2022-09-16T10:57:25;100278.69;;;13.41;35.87
42887;BME280;29032;56.028;92.904;2022-09-16T11:02:54;100288.69;;;13.36;35.15
42887;BME280;29032;56.028;92.904;2022-09-16T11:08:10;100291.13;;;13.27;34.91
42887;BME280;29032;56.028;92.904;2022-09-16T11:13:24;100299.28;;;13.25;35.31
42887;BME280;29032;56.028;92.904;2022-09-16T11:18:40;100295.84;;;13.18;37.89
42887;BME280;29032;56.028;92.904;2022-09-16T11:23:59;100293.88;;;13.13;37.24
42887;BME280;29032;56.028;92.904;2022-09-16T11:29:17;100295.25;;;13.07;36.16
42887;BME280;29032;56.028;92.904;2022-09-16T11:34:33;100297.69;;;12.97;36.74
42887;BME280;29032;56.028;92.904;2022-09-16T11:39:49;100287.88;;;12.90;35.78
42887;BME280;29032;56.028;92.904;2022-09-16T11:45:05;100287.72;;;12.83;37.43
42887;BME280;29032;56.028;92.904;2022-09-16T11:50:21;100291.81;;;12.63;37.89
42887;BME280;29032;56.028;92.904;2022-09-16T11:55:32;100295.41;;;12.39;38.49
42887;BME280;29032;56.028;92.904;2022-09-16T12:00:39;100293.63;;;12.17;38.97
42887;BME280;29032;56.028;92.904;2022-09-16T12:05:46;100292.78;;;12.03;39.53
42887;BME280;29032;56.028;92.904;2022-09-16T12:10:51;100288.13;;;11.87;39.91
42887;BME280;29032;56.028;92.904;2022-09-16T12:16:00;100297.63;;;11.73;40.87
42887;BME280;29032;56.028;92.904;2022-09-16T12:21:07;100305.06;;;11.65;38.13
42887;BME280;29032;56.028;92.904;2022-09-16T12:26:15;100313.31;;;11.51;40.52
42887;BME280;29032;56.028;92.904;2022-09-16T12:31:23;100313.59;;;11.42;41.85
42887;BME280;29032;56.028;92.904;2022-09-16T12:36:29;100312.94;;;11.30;41.33
42887;BME280;29032;56.028;92.904;2022-09-16T12:41:50;100322.06;;;11.31;40.74
42887;BME280;29032;56.028;92.904;2022-09-16T13:04:14;100332.94;;;10.93;41.77
42887;BME280;29032;56.028;92.904;2022-09-16T13:09:21;100328.25;;;10.77;42.80
42887;BME280;29032;56.028;92.904;2022-09-16T13:14:26;100341.47;;;10.60;43.02
42887;BME280;29032;56.028;92.904;2022-09-16T13:19:38;100332.16;;;10.52;42.14
42887;BME280;29032;56.028;92.904;2022-09-16T13:24:44;100346.66;;;10.33;43.05
42887;BME280;29032;56.028;92.904;2022-09-16T13:29:47;100344.63;;;10.17;45.03
42887;BME280;29032;56.028;92.904;2022-09-16T13:35:02;100349.22;;;10.26;43.11
42887;BME280;29032;56.028;92.904;2022-09-16T13:40:17;100356.53;;;10.23;43.73
42887;BME280;29032;56.028;92.904;2022-09-16T13:45:33;100354.50;;;10.24;44.11
42887;BME280;29032;56.028;92.904;2022-09-16T13:50:41;100358.31;;;10.15;45.68
42887;BME280;29032;56.028;92.904;2022-09-16T13:55:46;100359.84;;;10.05;46.24
42887;BME280;29032;56.028;92.904;2022-09-16T14:00:58;100362.34;;;10.14;43.97
42887;BME280;29032;56.028;92.904;2022-09-16T14:06:20;100369.66;;;10.17;44.77
42887;BME280;29032;56.028;92.904;2022-09-16T14:11:31;100363.16;;;9.98;46.44
42887;BME280;29032;56.028;92.904;2022-09-16T14:16:39;100352.53;;;9.85;46.27
42887;BME280;29032;56.028;92.904;2022-09-16T14:21:44;100363.91;;;9.81;47.23
42887;BME280;29032;56.028;92.904;2022-09-16T14:26:50;100365.94;;;9.75;46.83
42887;BME280;29032;56.028;92.904;2022-09-16T14:31:54;100371.25;;;9.79;46.71
42887;BME280;29032;56.028;92.904;2022-09-16T14:36:58;100375.03;;;9.92;47.12
42887;BME280;29032;56.028;92.904;2022-09-16T14:42:03;100367.69;;;10.06;46.29
42887;BME280;29032;56.028;92.904;2022-09-16T14:47:16;100370.94;;;10.16;45.44
42887;BME280;29032;56.028;92.904;2022-09-16T14:52:23;100373.22;;;10.17;45.89
42887;BME280;29032;56.028;92.904;2022-09-16T14:57:27;100376.50;;;10.16;46.83
42887;BME280;29032;56.028;92.904;2022-09-16T15:02:35;100375.25;;;10.23;46.34
42887;BME280;29032;56.028;92.904;2022-09-16T15:07:41;100379.56;;;10.18;47.57
42887;BME280;29032;56.028;92.904;2022-09-16T15:12:47;100376.03;;;10.06;48.07
42887;BME280;29032;56.028;92.904;2022-09-16T15:17:53;100377.56;;;9.90;48.84
42887;BME280;29032;56.028;92.904;2022-09-16T15:22:58;100386.16;;;9.81;49.25
42887;BME280;29032;56.028;92.904;2022-09-16T15:28:05;100376.81;;;9.84;47.39
42887;BME280;29032;56.028;92.904;2022-09-16T15:33:20;100380.84;;;10.06;45.21
42887;BME280;29032;56.028;92.904;2022-09-16T15:38:25;100381.84;;;9.75;47.11
42887;BME280;29032;56.028;92.904;2022-09-16T15:43:28;100387.44;;;9.69;47.09
42887;BME280;29032;56.028;92.904;2022-09-16T15:48:35;100398.81;;;9.93;45.27
42887;BME280;29032;56.028;92.904;2022-09-16T15:53:42;100398.81;;;9.77;47.87
42887;BME280;29032;56.028;92.904;2022-09-16T15:58:47;100400.84;;;9.71;47.47
42887;BME280;29032;56.028;92.904;2022-09-16T16:03:54;100401.09;;;9.73;46.63
42887;BME280;29032;56.028;92.904;2022-09-16T16:08:59;100395.28;;;9.65;47.00
42887;BME280;29032;56.028;92.904;2022-09-16T16:14:01;100391.72;;;9.59;48.04
42887;BME280;29032;56.028;92.904;2022-09-16T16:19:03;100393.25;;;9.60;48.87
42887;BME280;29032;56.028;92.904;2022-09-16T16:24:07;100397.81;;;9.63;47.46
42887;BME280;29032;56.028;92.904;2022-09-16T16:29:09;100394.75;;;9.50;48.38
42887;BME280;29032;56.028;92.904;2022-09-16T16:34:12;100395.00;;;9.46;48.38
42887;BME280;29032;56.028;92.904;2022-09-16T16:39:16;100399.03;;;9.45;48.15
42887;BME280;29032;56.028;92.904;2022-09-16T16:44:18;100395.75;;;9.35;47.92
42887;BME280;29032;56.028;92.904;2022-09-16T16:49:21;100404.34;;;9.26;48.20
42887;BME280;29032;56.028;92.904;2022-09-16T16:54:25;100406.84;;;9.24;48.25
42887;BME280;29032;56.028;92.904;2022-09-16T16:59:28;100398.22;;;9.11;48.17
42887;BME280;29032;56.028;92.904;2022-09-16T17:04:30;100405.25;;;9.01;49.03
42887;BME280;29032;56.028;92.904;2022-09-16T17:09:34;100410.81;;;9.01;48.37
42887;BME280;29032;56.028;92.904;2022-09-16T17:14:36;100413.81;;;8.92;48.90
42887;BME280;29032;56.028;92.904;2022-09-16T17:19:38;100409.25;;;8.89;48.88
42887;BME280;29032;56.028;92.904;2022-09-16T17:24:42;100417.06;;;8.90;49.53
42887;BME280;29032;56.028;92.904;2022-09-16T17:29:44;100407.72;;;8.82;49.69
42887;BME280;29032;56.028;92.904;2022-09-16T17:34:46;100397.59;;;8.79;49.29
42887;BME280;29032;56.028;92.904;2022-09-16T17:39:50;100403.66;;;8.77;49.37
42887;BME280;29032;56.028;92.904;2022-09-16T17:44:52;100408.13;;;8.69;49.23
42887;BME280;29032;56.028;92.904;2022-09-16T17:49:54;100401.53;;;8.61;49.16
42887;BME280;29032;56.028;92.904;2022-09-16T17:54:58;100407.56;;;8.54;49.74
42887;BME280;29032;56.028;92.904;2022-09-16T18:00:01;100413.53;;;8.41;49.84
42887;BME280;29032;56.028;92.904;2022-09-16T18:05:04;100414.78;;;8.40;49.86
42887;BME280;29032;56.028;92.904;2022-09-16T18:10:08;100413.06;;;8.43;49.48
42887;BME280;29032;56.028;92.904;2022-09-16T18:15:10;100412.22;;;8.31;49.92
42887;BME280;29032;56.028;92.904;2022-09-16T18:20:12;100409.97;;;8.30;49.90
42887;BME280;29032;56.028;92.904;2022-09-16T18:25:16;100402.66;;;8.32;49.27
42887;BME280;29032;56.028;92.904;2022-09-16T18:30:18;100408.16;;;8.21;48.89
42887;BME280;29032;56.028;92.904;2022-09-16T18:35:21;100403.22;;;8.05;48.82
42887;BME280;29032;56.028;92.904;2022-09-16T18:40:24;100411.25;;;7.97;49.22
42887;BME280;29032;56.028;92.904;2022-09-16T18:45:27;100411.44;;;7.88;49.26
42887;BME280;29032;56.028;92.904;2022-09-16T18:50:29;100414.41;;;7.84;49.70
42887;BME280;29032;56.028;92.904;2022-09-16T18:55:32;100407.66;;;7.91;49.15
42887;BME280;29032;56.028;92.904;2022-09-16T19:00:34;100416.72;;;7.86;48.79
42887;BME280;29032;56.028;92.904;2022-09-16T19:05:37;100409.38;;;7.83;49.13
42887;BME280;29032;56.028;92.904;2022-09-16T19:10:40;100418.22;;;7.87;48.62
42887;BME280;29032;56.028;92.904;2022-09-16T19:15:42;100423.66;;;7.76;50.21
42887;BME280;29032;56.028;92.904;2022-09-16T19:20:44;100414.53;;;7.69;49.25
42887;BME280;29032;56.028;92.904;2022-09-16T19:25:48;100411.06;;;7.75;49.93
42887;BME280;29032;56.028;92.904;2022-09-16T19:30:50;100409.56;;;7.73;49.03
42887;BME280;29032;56.028;92.904;2022-09-16T19:35:52;100415.09;;;7.73;48.62
42887;BME280;29032;56.028;92.904;2022-09-16T19:41:02;100411.63;;;7.79;48.95
42887;BME280;29032;56.028;92.904;2022-09-16T19:46:06;100410.75;;;7.67;49.29
42887;BME280;29032;56.028;92.904;2022-09-16T19:51:10;100415.00;;;7.62;48.78
42887;BME280;29032;56.028;92.904;2022-09-16T19:56:16;100423.91;;;7.46;49.22
42887;BME280;29032;56.028;92.904;2022-09-16T20:01:21;100419.66;;;7.25;50.04
42887;BME280;29032;56.028;92.904;2022-09-16T20:06:25;100412.03;;;7.19;49.76
42887;BME280;29032;56.028;92.904;2022-09-16T20:11:31;100408.44;;;7.13;49.96
42887;BME280;29032;56.028;92.904;2022-09-16T20:16:35;100410.66;;;7.09;51.21
42887;BME280;29032;56.028;92.904;2022-09-16T20:21:38;100408.44;;;7.13;50.53
42887;BME280;29032;56.028;92.904;2022-09-16T20:26:42;100413.53;;;7.21;50.97
42887;BME280;29032;56.028;92.904;2022-09-16T20:31:45;100416.03;;;7.18;51.46
42887;BME280;29032;56.028;92.904;2022-09-16T20:36:47;100419.81;;;7.15;51.73
42887;BME280;29032;56.028;92.904;2022-09-16T20:41:51;100413.97;;;7.13;51.87
42887;BME280;29032;56.028;92.904;2022-09-16T20:46:53;100413.38;;;7.04;51.14
42887;BME280;29032;56.028;92.904;2022-09-16T20:51:55;100425.44;;;6.80;51.22
42887;BME280;29032;56.028;92.904;2022-09-16T20:56:58;100424.72;;;6.65;52.17
42887;BME280;29032;56.028;92.904;2022-09-16T21:02:01;100430.16;;;6.39;51.18
42887;BME280;29032;56.028;92.904;2022-09-16T21:07:03;100430.00;;;6.28;51.83
42887;BME280;29032;56.028;92.904;2022-09-16T21:12:06;100428.75;;;6.29;51.92
42887;BME280;29032;56.028;92.904;2022-09-16T21:17:09;100440.50;;;6.09;52.30
42887;BME280;29032;56.028;92.904;2022-09-16T21:22:11;100443.22;;;6.03;53.46
42887;BME280;29032;56.028;92.904;2022-09-16T21:27:14;100444.81;;;6.10;52.81
42887;BME280;29032;56.028;92.904;2022-09-16T21:32:16;100450.44;;;6.01;53.37
42887;BME280;29032;56.028;92.904;2022-09-16T21:37:19;100451.41;;;5.98;53.18
42887;BME280;29032;56.028;92.904;2022-09-16T21:42:22;100451.19;;;6.01;52.74
42887;BME280;29032;56.028;92.904;2022-09-16T21:47:24;100460.47;;;5.98;52.04
42887;BME280;29032;56.028;92.904;2022-09-16T21:52:26;100455.91;;;5.95;52.26
42887;BME280;29032;56.028;92.904;2022-09-16T21:57:30;100459.81;;;5.89;52.29
42887;BME280;29032;56.028;92.904;2022-09-16T22:02:32;100469.69;;;5.66;51.99
42887;BME280;29032;56.028;92.904;2022-09-16T22:07:34;100464.53;;;5.44;53.53
42887;BME280;29032;56.028;92.904;2022-09-16T22:12:37;100463.41;;;5.50;53.30
42887;BME280;29032;56.028;92.904;2022-09-16T22:17:41;100464.53;;;5.59;52.77
42887;BME280;29032;56.028;92.904;2022-09-16T22:22:43;100454.09;;;5.63;52.79
42887;BME280;29032;56.028;92.904;2022-09-16T22:27:46;100449.69;;;5.71;52.21
42887;BME280;29032;56.028;92.904;2022-09-16T22:32:48;100480.09;;;5.71;51.12
42887;BME280;29032;56.028;92.904;2022-09-16T22:37:50;100484.94;;;5.61;52.40
42887;BME280;29032;56.028;92.904;2022-09-16T22:42:54;100478.09;;;5.57;52.29
42887;BME280;29032;56.028;92.904;2022-09-16T22:47:56;100478.16;;;5.47;52.50
42887;BME280;29032;56.028;92.904;2022-09-16T22:52:58;100475.22;;;5.51;52.21
42887;BME280;29032;56.028;92.904;2022-09-16T22:58:02;100476.72;;;5.37;52.73
42887;BME280;29032;56.028;92.904;2022-09-16T23:03:04;100489.41;;;5.20;52.52
42887;BME280;29032;56.028;92.904;2022-09-16T23:08:06;100482.94;;;5.23;54.13
42887;BME280;29032;56.028;92.904;2022-09-16T23:13:10;100494.97;;;5.35;54.27
42887;BME280;29032;56.028;92.904;2022-09-16T23:18:12;100509.78;;;5.22;53.56
42887;BME280;29032;56.028;92.904;2022-09-16T23:23:14;100490.72;;;5.24;52.75
42887;BME280;29032;56.028;92.904;2022-09-16T23:28:18;100514.53;;;5.22;52.26
42887;BME280;29032;56.028;92.904;2022-09-16T23:33:20;100512.06;;;5.24;52.25
42887;BME280;29032;56.028;92.904;2022-09-16T23:38:22;100510.84;;;5.25;53.69
42887;BME280;29032;56.028;92.904;2022-09-16T23:43:26;100506.50;;;5.33;53.36
42887;BME280;29032;56.028;92.904;2022-09-16T23:48:28;100507.25;;;5.34;53.46
42887;BME280;29032;56.028;92.904;2022-09-16T23:53:30;100514.44;;;5.40;54.10
42887;BME280;29032;56.028;92.904;2022-09-16T23:58:34;100509.69;;;5.56;53.47
